sensor_id;sensor_type;location;lat;lon;timestamp;temperature;humidity
21403;DHT22;10862;51.886;17.078;2024-01-25T00:01:25;6.50;99.90
21403;DHT22;10862;51.886;17.078;2024-01-25T00:03:51;6.60;99.90
21403;DHT22;10862;51.886;17.078;2024-01-25T00:06:17;6.60;56.50
21403;DHT22;10862;51.886;17.078;2024-01-25T00:08:42;6.70;7.20
21403;DHT22;10862;51.886;17.078;2024-01-25T00:11:08;6.80;1.00
21403;DHT22;10862;51.886;17.078;2024-01-25T00:13:35;6.80;1.00
21403;DHT22;10862;51.886;17.078;2024-01-25T00:16:01;6.80;1.00
21403;DHT22;10862;51.886;17.078;2024-01-25T00:18:27;6.80;1.00
21403;DHT22;10862;51.886;17.078;2024-01-25T00:20:55;6.90;1.00
21403;DHT22;10862;51.886;17.078;2024-01-25T00:23:20;6.80;1.00
21403;DHT22;10862;51.886;17.078;2024-01-25T00:25:46;6.80;99.90
21403;DHT22;10862;51.886;17.078;2024-01-25T00:28:12;6.80;1.00
21403;DHT22;10862;51.886;17.078;2024-01-25T00:30:38;6.70;99.90
21403;DHT22;10862;51.886;17.078;2024-01-25T00:33:04;6.70;1.00
21403;DHT22;10862;51.886;17.078;2024-01-25T00:35:30;6.80;1.00
21403;DHT22;10862;51.886;17.078;2024-01-25T00:37:56;6.80;1.00
21403;DHT22;10862;51.886;17.078;2024-01-25T00:40:23;6.70;1.00
21403;DHT22;10862;51.886;17.078;2024-01-25T00:42:49;6.80;1.00
21403;DHT22;10862;51.886;17.078;2024-01-25T00:45:19;6.80;1.00
21403;DHT22;10862;51.886;17.078;2024-01-25T00:47:45;6.70;1.00
21403;DHT22;10862;51.886;17.078;2024-01-25T00:50:12;6.70;1.00
21403;DHT22;10862;51.886;17.078;2024-01-25T00:52:38;6.70;1.00
21403;DHT22;10862;51.886;17.078;2024-01-25T00:55:04;6.60;1.00
21403;DHT22;10862;51.886;17.078;2024-01-25T00:57:31;6.50;1.00
21403;DHT22;10862;51.886;17.078;2024-01-25T00:59:57;6.50;1.00
21403;DHT22;10862;51.886;17.078;2024-01-25T01:02:23;6.50;1.00
21403;DHT22;10862;51.886;17.078;2024-01-25T01:04:49;6.40;1.00
21403;DHT22;10862;51.886;17.078;2024-01-25T01:07:15;6.40;1.00
21403;DHT22;10862;51.886;17.078;2024-01-25T01:09:41;6.30;1.00
21403;DHT22;10862;51.886;17.078;2024-01-25T01:12:07;6.30;1.00
21403;DHT22;10862;51.886;17.078;2024-01-25T01:14:33;6.30;1.00
21403;DHT22;10862;51.886;17.078;2024-01-25T01:16:59;6.40;1.00
21403;DHT22;10862;51.886;17.078;2024-01-25T01:19:24;6.40;1.00
21403;DHT22;10862;51.886;17.078;2024-01-25T01:21:50;6.50;1.00
21403;DHT22;10862;51.886;17.078;2024-01-25T01:24:15;6.60;99.90
21403;DHT22;10862;51.886;17.078;2024-01-25T01:26:41;6.70;1.00
21403;DHT22;10862;51.886;17.078;2024-01-25T01:29:07;6.70;1.00
21403;DHT22;10862;51.886;17.078;2024-01-25T01:31:33;6.80;1.00
21403;DHT22;10862;51.886;17.078;2024-01-25T01:33:59;6.90;62.50
21403;DHT22;10862;51.886;17.078;2024-01-25T01:36:26;6.70;1.00
21403;DHT22;10862;51.886;17.078;2024-01-25T01:38:51;6.90;1.00
21403;DHT22;10862;51.886;17.078;2024-01-25T01:41:17;7.00;1.00
21403;DHT22;10862;51.886;17.078;2024-01-25T01:43:43;6.90;1.00
21403;DHT22;10862;51.886;17.078;2024-01-25T01:46:34;7.00;1.00
21403;DHT22;10862;51.886;17.078;2024-01-25T01:49:08;7.00;1.00
21403;DHT22;10862;51.886;17.078;2024-01-25T01:51:36;7.00;1.00
21403;DHT22;10862;51.886;17.078;2024-01-25T01:54:02;7.00;1.00
21403;DHT22;10862;51.886;17.078;2024-01-25T01:56:28;7.10;1.00
21403;DHT22;10862;51.886;17.078;2024-01-25T01:58:59;7.10;1.00
21403;DHT22;10862;51.886;17.078;2024-01-25T02:01:25;7.00;1.00
21403;DHT22;10862;51.886;17.078;2024-01-25T02:03:51;7.10;1.00
21403;DHT22;10862;51.886;17.078;2024-01-25T02:06:17;7.10;61.20
21403;DHT22;10862;51.886;17.078;2024-01-25T02:08:43;7.00;99.90
21403;DHT22;10862;51.886;17.078;2024-01-25T02:11:14;7.10;1.00
21403;DHT22;10862;51.886;17.078;2024-01-25T02:13:40;7.10;1.00
21403;DHT22;10862;51.886;17.078;2024-01-25T02:16:07;6.90;1.00
21403;DHT22;10862;51.886;17.078;2024-01-25T02:18:33;6.90;99.90
21403;DHT22;10862;51.886;17.078;2024-01-25T02:20:59;7.00;84.00
21403;DHT22;10862;51.886;17.078;2024-01-25T02:23:25;7.10;99.90
21403;DHT22;10862;51.886;17.078;2024-01-25T02:25:50;7.10;1.00
21403;DHT22;10862;51.886;17.078;2024-01-25T02:28:16;7.20;1.00
21403;DHT22;10862;51.886;17.078;2024-01-25T02:30:42;7.30;99.90
21403;DHT22;10862;51.886;17.078;2024-01-25T02:33:08;7.30;99.90
21403;DHT22;10862;51.886;17.078;2024-01-25T02:35:33;7.30;99.90
21403;DHT22;10862;51.886;17.078;2024-01-25T02:37:59;7.30;10.80
21403;DHT22;10862;51.886;17.078;2024-01-25T02:40:25;7.40;1.00
21403;DHT22;10862;51.886;17.078;2024-01-25T02:42:51;7.30;1.00
21403;DHT22;10862;51.886;17.078;2024-01-25T02:45:16;7.40;99.90
21403;DHT22;10862;51.886;17.078;2024-01-25T02:47:42;7.50;99.90
21403;DHT22;10862;51.886;17.078;2024-01-25T02:50:08;7.50;99.90
21403;DHT22;10862;51.886;17.078;2024-01-25T02:52:34;7.50;99.90
21403;DHT22;10862;51.886;17.078;2024-01-25T02:55:00;7.50;99.90
21403;DHT22;10862;51.886;17.078;2024-01-25T02:57:26;7.50;4.90
21403;DHT22;10862;51.886;17.078;2024-01-25T02:59:51;7.50;3.90
21403;DHT22;10862;51.886;17.078;2024-01-25T03:02:17;7.60;1.00
21403;DHT22;10862;51.886;17.078;2024-01-25T03:04:45;7.60;1.00
21403;DHT22;10862;51.886;17.078;2024-01-25T03:07:11;7.50;1.00
21403;DHT22;10862;51.886;17.078;2024-01-25T03:09:36;7.50;1.00
21403;DHT22;10862;51.886;17.078;2024-01-25T03:12:02;7.50;1.00
21403;DHT22;10862;51.886;17.078;2024-01-25T03:14:28;7.50;1.00
21403;DHT22;10862;51.886;17.078;2024-01-25T03:16:53;7.60;1.00
21403;DHT22;10862;51.886;17.078;2024-01-25T03:19:19;7.70;1.00
21403;DHT22;10862;51.886;17.078;2024-01-25T03:21:44;7.60;1.00
21403;DHT22;10862;51.886;17.078;2024-01-25T03:24:10;7.60;1.00
21403;DHT22;10862;51.886;17.078;2024-01-25T03:26:36;7.50;1.00
21403;DHT22;10862;51.886;17.078;2024-01-25T03:29:01;7.50;1.00
21403;DHT22;10862;51.886;17.078;2024-01-25T03:31:27;7.60;1.00
21403;DHT22;10862;51.886;17.078;2024-01-25T03:33:52;7.60;1.00
21403;DHT22;10862;51.886;17.078;2024-01-25T03:36:18;7.50;1.00
21403;DHT22;10862;51.886;17.078;2024-01-25T03:38:44;7.60;1.00
21403;DHT22;10862;51.886;17.078;2024-01-25T03:41:09;7.60;1.00
21403;DHT22;10862;51.886;17.078;2024-01-25T03:43:35;7.40;1.00
21403;DHT22;10862;51.886;17.078;2024-01-25T03:46:01;7.50;1.00
21403;DHT22;10862;51.886;17.078;2024-01-25T03:48:28;7.50;1.00
21403;DHT22;10862;51.886;17.078;2024-01-25T03:50:54;7.50;1.00
21403;DHT22;10862;51.886;17.078;2024-01-25T03:53:23;7.50;1.00
21403;DHT22;10862;51.886;17.078;2024-01-25T03:55:49;7.50;1.00
21403;DHT22;10862;51.886;17.078;2024-01-25T03:58:16;7.50;1.00
21403;DHT22;10862;51.886;17.078;2024-01-25T04:00:42;7.60;1.00
21403;DHT22;10862;51.886;17.078;2024-01-25T04:03:09;7.60;1.00
21403;DHT22;10862;51.886;17.078;2024-01-25T04:05:35;7.50;1.00
21403;DHT22;10862;51.886;17.078;2024-01-25T04:08:01;7.40;1.00
21403;DHT22;10862;51.886;17.078;2024-01-25T04:10:26;7.40;99.90
21403;DHT22;10862;51.886;17.078;2024-01-25T04:12:52;7.40;99.90
21403;DHT22;10862;51.886;17.078;2024-01-25T04:15:18;7.40;99.90
21403;DHT22;10862;51.886;17.078;2024-01-25T04:17:43;7.40;99.90
21403;DHT22;10862;51.886;17.078;2024-01-25T04:20:09;7.40;99.90
21403;DHT22;10862;51.886;17.078;2024-01-25T04:22:36;7.30;99.90
21403;DHT22;10862;51.886;17.078;2024-01-25T04:25:02;7.40;1.00
21403;DHT22;10862;51.886;17.078;2024-01-25T04:27:27;7.30;1.00
21403;DHT22;10862;51.886;17.078;2024-01-25T04:29:53;7.20;99.90
21403;DHT22;10862;51.886;17.078;2024-01-25T04:32:19;7.20;1.00
21403;DHT22;10862;51.886;17.078;2024-01-25T04:34:45;7.00;99.90
21403;DHT22;10862;51.886;17.078;2024-01-25T04:37:13;7.10;99.90
21403;DHT22;10862;51.886;17.078;2024-01-25T04:39:39;7.10;1.00
21403;DHT22;10862;51.886;17.078;2024-01-25T04:42:05;7.10;1.00
21403;DHT22;10862;51.886;17.078;2024-01-25T04:44:30;7.00;1.00
21403;DHT22;10862;51.886;17.078;2024-01-25T04:46:56;7.00;1.00
21403;DHT22;10862;51.886;17.078;2024-01-25T04:49:22;7.10;99.90
21403;DHT22;10862;51.886;17.078;2024-01-25T04:51:47;7.10;72.30
21403;DHT22;10862;51.886;17.078;2024-01-25T04:54:13;7.20;99.90
21403;DHT22;10862;51.886;17.078;2024-01-25T04:56:43;7.10;1.00
21403;DHT22;10862;51.886;17.078;2024-01-25T04:59:09;7.10;1.00
21403;DHT22;10862;51.886;17.078;2024-01-25T05:01:36;7.10;99.90
21403;DHT22;10862;51.886;17.078;2024-01-25T05:04:01;7.10;1.00
21403;DHT22;10862;51.886;17.078;2024-01-25T05:06:27;7.00;1.00
21403;DHT22;10862;51.886;17.078;2024-01-25T05:08:53;7.00;1.00
21403;DHT22;10862;51.886;17.078;2024-01-25T05:11:19;7.00;1.00
21403;DHT22;10862;51.886;17.078;2024-01-25T05:13:44;7.00;1.00
21403;DHT22;10862;51.886;17.078;2024-01-25T05:16:11;7.00;99.90
21403;DHT22;10862;51.886;17.078;2024-01-25T05:18:36;7.00;1.00
21403;DHT22;10862;51.886;17.078;2024-01-25T05:21:02;7.00;1.00
21403;DHT22;10862;51.886;17.078;2024-01-25T05:23:28;7.10;1.00
21403;DHT22;10862;51.886;17.078;2024-01-25T05:25:53;7.00;99.90
21403;DHT22;10862;51.886;17.078;2024-01-25T05:28:19;7.10;99.90
21403;DHT22;10862;51.886;17.078;2024-01-25T05:30:44;7.10;99.90
21403;DHT22;10862;51.886;17.078;2024-01-25T05:33:10;7.10;1.00
21403;DHT22;10862;51.886;17.078;2024-01-25T05:35:36;7.20;99.90
21403;DHT22;10862;51.886;17.078;2024-01-25T05:38:01;7.10;1.00
21403;DHT22;10862;51.886;17.078;2024-01-25T05:40:27;7.20;1.00
21403;DHT22;10862;51.886;17.078;2024-01-25T05:42:53;7.10;1.00
21403;DHT22;10862;51.886;17.078;2024-01-25T05:45:18;7.10;99.90
21403;DHT22;10862;51.886;17.078;2024-01-25T05:47:47;7.10;99.90
21403;DHT22;10862;51.886;17.078;2024-01-25T05:50:12;7.00;1.00
21403;DHT22;10862;51.886;17.078;2024-01-25T05:52:38;7.00;1.00
21403;DHT22;10862;51.886;17.078;2024-01-25T05:55:05;7.00;1.00
21403;DHT22;10862;51.886;17.078;2024-01-25T05:57:31;7.10;99.90
21403;DHT22;10862;51.886;17.078;2024-01-25T05:59:56;6.90;1.00
21403;DHT22;10862;51.886;17.078;2024-01-25T06:02:22;7.00;99.90
21403;DHT22;10862;51.886;17.078;2024-01-25T06:04:48;7.00;1.00
21403;DHT22;10862;51.886;17.078;2024-01-25T06:07:13;6.90;1.00
21403;DHT22;10862;51.886;17.078;2024-01-25T06:09:39;6.90;99.90
21403;DHT22;10862;51.886;17.078;2024-01-25T06:12:05;6.90;99.90
21403;DHT22;10862;51.886;17.078;2024-01-25T06:14:30;7.00;1.00
21403;DHT22;10862;51.886;17.078;2024-01-25T06:16:56;7.10;1.00
21403;DHT22;10862;51.886;17.078;2024-01-25T06:19:22;7.00;1.00
21403;DHT22;10862;51.886;17.078;2024-01-25T06:21:47;7.10;99.90
21403;DHT22;10862;51.886;17.078;2024-01-25T06:24:13;7.10;1.00
21403;DHT22;10862;51.886;17.078;2024-01-25T06:26:39;7.20;1.00
21403;DHT22;10862;51.886;17.078;2024-01-25T06:29:04;7.20;1.00
21403;DHT22;10862;51.886;17.078;2024-01-25T06:31:30;7.30;1.00
21403;DHT22;10862;51.886;17.078;2024-01-25T06:33:55;7.30;1.00
21403;DHT22;10862;51.886;17.078;2024-01-25T06:36:22;7.20;99.90
21403;DHT22;10862;51.886;17.078;2024-01-25T06:38:47;7.20;1.00
21403;DHT22;10862;51.886;17.078;2024-01-25T06:41:13;7.20;1.00
21403;DHT22;10862;51.886;17.078;2024-01-25T06:43:40;7.20;1.00
21403;DHT22;10862;51.886;17.078;2024-01-25T06:46:06;7.20;1.00
21403;DHT22;10862;51.886;17.078;2024-01-25T06:48:32;7.20;99.90
21403;DHT22;10862;51.886;17.078;2024-01-25T06:50:58;7.30;99.90
21403;DHT22;10862;51.886;17.078;2024-01-25T06:53:23;7.20;99.90
21403;DHT22;10862;51.886;17.078;2024-01-25T06:55:49;7.20;99.90
21403;DHT22;10862;51.886;17.078;2024-01-25T06:58:15;7.30;99.90
21403;DHT22;10862;51.886;17.078;2024-01-25T07:00:40;7.30;99.90
21403;DHT22;10862;51.886;17.078;2024-01-25T07:03:08;7.30;99.90
21403;DHT22;10862;51.886;17.078;2024-01-25T07:05:34;7.30;99.90
21403;DHT22;10862;51.886;17.078;2024-01-25T07:08:04;7.30;99.90
21403;DHT22;10862;51.886;17.078;2024-01-25T07:10:30;7.20;1.00
21403;DHT22;10862;51.886;17.078;2024-01-25T07:12:55;7.30;99.90
21403;DHT22;10862;51.886;17.078;2024-01-25T07:15:21;7.30;99.90
21403;DHT22;10862;51.886;17.078;2024-01-25T07:17:47;7.30;99.90
21403;DHT22;10862;51.886;17.078;2024-01-25T07:20:13;7.30;99.90
21403;DHT22;10862;51.886;17.078;2024-01-25T07:22:39;7.30;99.90
21403;DHT22;10862;51.886;17.078;2024-01-25T07:25:05;7.30;99.90
21403;DHT22;10862;51.886;17.078;2024-01-25T07:27:31;7.30;99.90
21403;DHT22;10862;51.886;17.078;2024-01-25T07:29:57;7.20;1.00
21403;DHT22;10862;51.886;17.078;2024-01-25T07:32:22;7.30;1.00
21403;DHT22;10862;51.886;17.078;2024-01-25T07:34:50;7.30;1.00
21403;DHT22;10862;51.886;17.078;2024-01-25T07:37:15;7.20;1.00
21403;DHT22;10862;51.886;17.078;2024-01-25T07:39:42;7.20;1.00
21403;DHT22;10862;51.886;17.078;2024-01-25T07:42:07;7.20;1.00
21403;DHT22;10862;51.886;17.078;2024-01-25T07:44:33;7.10;1.00
21403;DHT22;10862;51.886;17.078;2024-01-25T07:46:59;7.10;99.90
21403;DHT22;10862;51.886;17.078;2024-01-25T07:49:25;7.10;1.00
21403;DHT22;10862;51.886;17.078;2024-01-25T07:51:51;7.10;22.30
21403;DHT22;10862;51.886;17.078;2024-01-25T07:54:17;7.10;37.10
21403;DHT22;10862;51.886;17.078;2024-01-25T07:56:43;7.10;11.10
21403;DHT22;10862;51.886;17.078;2024-01-25T07:59:10;7.10;1.00
21403;DHT22;10862;51.886;17.078;2024-01-25T08:01:35;7.10;95.20
21403;DHT22;10862;51.886;17.078;2024-01-25T08:04:01;7.00;99.90
21403;DHT22;10862;51.886;17.078;2024-01-25T08:06:28;7.00;99.90
21403;DHT22;10862;51.886;17.078;2024-01-25T08:08:54;7.00;1.00
21403;DHT22;10862;51.886;17.078;2024-01-25T08:11:20;6.90;88.40
21403;DHT22;10862;51.886;17.078;2024-01-25T08:13:46;6.90;99.90
21403;DHT22;10862;51.886;17.078;2024-01-25T08:16:13;7.00;1.00
21403;DHT22;10862;51.886;17.078;2024-01-25T08:18:39;7.00;1.00
21403;DHT22;10862;51.886;17.078;2024-01-25T08:21:05;7.00;1.00
21403;DHT22;10862;51.886;17.078;2024-01-25T08:23:31;7.00;99.90
21403;DHT22;10862;51.886;17.078;2024-01-25T08:25:57;7.00;99.90
21403;DHT22;10862;51.886;17.078;2024-01-25T08:28:23;7.00;1.00
21403;DHT22;10862;51.886;17.078;2024-01-25T08:30:48;7.00;99.90
21403;DHT22;10862;51.886;17.078;2024-01-25T08:33:14;7.10;99.90
21403;DHT22;10862;51.886;17.078;2024-01-25T08:35:40;7.10;99.90
21403;DHT22;10862;51.886;17.078;2024-01-25T08:38:06;7.10;99.90
21403;DHT22;10862;51.886;17.078;2024-01-25T08:40:32;7.10;41.90
21403;DHT22;10862;51.886;17.078;2024-01-25T08:42:58;7.20;92.10
21403;DHT22;10862;51.886;17.078;2024-01-25T08:45:24;7.10;1.00
21403;DHT22;10862;51.886;17.078;2024-01-25T08:47:49;7.10;95.40
21403;DHT22;10862;51.886;17.078;2024-01-25T08:50:16;7.10;52.20
21403;DHT22;10862;51.886;17.078;2024-01-25T08:52:42;7.20;1.00
21403;DHT22;10862;51.886;17.078;2024-01-25T08:55:08;7.20;1.00
21403;DHT22;10862;51.886;17.078;2024-01-25T08:57:35;7.20;1.00
21403;DHT22;10862;51.886;17.078;2024-01-25T09:00:01;7.30;1.00
21403;DHT22;10862;51.886;17.078;2024-01-25T09:02:27;7.30;1.00
21403;DHT22;10862;51.886;17.078;2024-01-25T09:04:55;7.60;1.00
21403;DHT22;10862;51.886;17.078;2024-01-25T09:07:21;7.50;1.00
21403;DHT22;10862;51.886;17.078;2024-01-25T09:09:46;7.30;1.00
21403;DHT22;10862;51.886;17.078;2024-01-25T09:12:12;7.40;1.00
21403;DHT22;10862;51.886;17.078;2024-01-25T09:14:38;7.40;1.00
21403;DHT22;10862;51.886;17.078;2024-01-25T09:17:04;7.40;1.00
21403;DHT22;10862;51.886;17.078;2024-01-25T09:19:30;7.30;1.00
21403;DHT22;10862;51.886;17.078;2024-01-25T09:21:56;7.30;1.00
21403;DHT22;10862;51.886;17.078;2024-01-25T09:24:25;7.10;99.90
21403;DHT22;10862;51.886;17.078;2024-01-25T09:26:51;7.10;99.90
21403;DHT22;10862;51.886;17.078;2024-01-25T09:29:16;7.10;99.90
21403;DHT22;10862;51.886;17.078;2024-01-25T09:31:42;7.10;99.90
21403;DHT22;10862;51.886;17.078;2024-01-25T09:34:07;7.10;1.00
21403;DHT22;10862;51.886;17.078;2024-01-25T09:36:33;7.10;1.00
21403;DHT22;10862;51.886;17.078;2024-01-25T09:38:58;7.00;1.00
21403;DHT22;10862;51.886;17.078;2024-01-25T09:41:24;7.10;99.90
21403;DHT22;10862;51.886;17.078;2024-01-25T09:43:50;7.00;1.00
21403;DHT22;10862;51.886;17.078;2024-01-25T09:46:16;7.00;1.00
21403;DHT22;10862;51.886;17.078;2024-01-25T09:48:42;7.10;1.00
21403;DHT22;10862;51.886;17.078;2024-01-25T09:51:11;7.20;1.00
21403;DHT22;10862;51.886;17.078;2024-01-25T09:53:40;7.00;1.00
21403;DHT22;10862;51.886;17.078;2024-01-25T09:56:08;7.00;1.00
21403;DHT22;10862;51.886;17.078;2024-01-25T09:58:40;7.10;1.00
21403;DHT22;10862;51.886;17.078;2024-01-25T10:01:11;7.10;99.90
21403;DHT22;10862;51.886;17.078;2024-01-25T10:03:47;7.10;99.90
21403;DHT22;10862;51.886;17.078;2024-01-25T10:06:14;7.10;99.90
21403;DHT22;10862;51.886;17.078;2024-01-25T10:08:40;7.10;99.90
21403;DHT22;10862;51.886;17.078;2024-01-25T10:11:06;7.30;99.90
21403;DHT22;10862;51.886;17.078;2024-01-25T10:13:43;7.20;99.90
21403;DHT22;10862;51.886;17.078;2024-01-25T10:16:16;7.10;1.00
21403;DHT22;10862;51.886;17.078;2024-01-25T10:18:42;7.10;99.90
21403;DHT22;10862;51.886;17.078;2024-01-25T10:21:12;7.30;1.00
21403;DHT22;10862;51.886;17.078;2024-01-25T10:23:39;7.30;1.00
21403;DHT22;10862;51.886;17.078;2024-01-25T10:26:05;7.30;1.00
21403;DHT22;10862;51.886;17.078;2024-01-25T10:28:30;7.20;1.00
21403;DHT22;10862;51.886;17.078;2024-01-25T10:30:59;7.20;99.90
21403;DHT22;10862;51.886;17.078;2024-01-25T10:33:26;7.10;1.00
21403;DHT22;10862;51.886;17.078;2024-01-25T10:35:54;7.10;1.00
21403;DHT22;10862;51.886;17.078;2024-01-25T10:38:21;7.20;99.90
21403;DHT22;10862;51.886;17.078;2024-01-25T10:40:48;7.30;99.90
21403;DHT22;10862;51.886;17.078;2024-01-25T10:43:14;7.30;1.00
21403;DHT22;10862;51.886;17.078;2024-01-25T10:45:40;7.20;1.00
21403;DHT22;10862;51.886;17.078;2024-01-25T10:48:07;7.40;99.90
21403;DHT22;10862;51.886;17.078;2024-01-25T10:50:33;7.40;89.80
21403;DHT22;10862;51.886;17.078;2024-01-25T10:52:59;7.40;1.00
21403;DHT22;10862;51.886;17.078;2024-01-25T10:55:26;7.60;99.90
21403;DHT22;10862;51.886;17.078;2024-01-25T10:57:52;7.60;99.90
21403;DHT22;10862;51.886;17.078;2024-01-25T11:00:18;7.60;99.90
21403;DHT22;10862;51.886;17.078;2024-01-25T11:02:46;7.60;99.90
21403;DHT22;10862;51.886;17.078;2024-01-25T11:05:13;7.60;1.00
21403;DHT22;10862;51.886;17.078;2024-01-25T11:07:47;7.70;1.00
21403;DHT22;10862;51.886;17.078;2024-01-25T11:10:21;7.90;1.00
21403;DHT22;10862;51.886;17.078;2024-01-25T11:15:39;7.70;1.00
21403;DHT22;10862;51.886;17.078;2024-01-25T11:18:07;7.60;1.00
21403;DHT22;10862;51.886;17.078;2024-01-25T11:20:34;7.50;1.00
21403;DHT22;10862;51.886;17.078;2024-01-25T11:23:05;7.50;1.00
21403;DHT22;10862;51.886;17.078;2024-01-25T11:25:34;7.50;1.00
21403;DHT22;10862;51.886;17.078;2024-01-25T11:28:03;7.50;1.00
21403;DHT22;10862;51.886;17.078;2024-01-25T11:30:34;7.50;1.00
21403;DHT22;10862;51.886;17.078;2024-01-25T11:33:00;7.40;1.00
21403;DHT22;10862;51.886;17.078;2024-01-25T11:35:26;7.40;99.90
21403;DHT22;10862;51.886;17.078;2024-01-25T11:37:52;7.60;1.00
21403;DHT22;10862;51.886;17.078;2024-01-25T11:40:18;7.40;1.00
21403;DHT22;10862;51.886;17.078;2024-01-25T11:42:46;7.40;1.00
21403;DHT22;10862;51.886;17.078;2024-01-25T11:45:13;7.40;86.80
21403;DHT22;10862;51.886;17.078;2024-01-25T11:47:40;7.40;99.90
21403;DHT22;10862;51.886;17.078;2024-01-25T11:50:07;7.40;99.90
21403;DHT22;10862;51.886;17.078;2024-01-25T11:52:33;7.30;99.90
21403;DHT22;10862;51.886;17.078;2024-01-25T11:55:03;7.30;99.90
21403;DHT22;10862;51.886;17.078;2024-01-25T11:57:38;7.30;1.00
21403;DHT22;10862;51.886;17.078;2024-01-25T12:00:09;7.20;4.00
21403;DHT22;10862;51.886;17.078;2024-01-25T12:02:36;7.00;1.00
21403;DHT22;10862;51.886;17.078;2024-01-25T12:05:03;6.90;1.00
21403;DHT22;10862;51.886;17.078;2024-01-25T12:07:32;6.90;99.90
21403;DHT22;10862;51.886;17.078;2024-01-25T12:10:03;6.90;1.00
21403;DHT22;10862;51.886;17.078;2024-01-25T12:12:29;6.90;94.00
21403;DHT22;10862;51.886;17.078;2024-01-25T12:14:59;6.90;1.00
21403;DHT22;10862;51.886;17.078;2024-01-25T12:17:27;7.00;1.00
21403;DHT22;10862;51.886;17.078;2024-01-25T12:19:57;7.10;99.90
21403;DHT22;10862;51.886;17.078;2024-01-25T12:22:32;7.20;99.90
21403;DHT22;10862;51.886;17.078;2024-01-25T12:24:58;7.10;95.60
21403;DHT22;10862;51.886;17.078;2024-01-25T12:27:25;7.20;1.00
21403;DHT22;10862;51.886;17.078;2024-01-25T12:29:51;7.20;99.90
21403;DHT22;10862;51.886;17.078;2024-01-25T12:32:19;7.30;99.90
21403;DHT22;10862;51.886;17.078;2024-01-25T12:34:59;7.10;1.00
21403;DHT22;10862;51.886;17.078;2024-01-25T12:37:26;7.10;1.00
21403;DHT22;10862;51.886;17.078;2024-01-25T12:39:53;7.30;1.00
21403;DHT22;10862;51.886;17.078;2024-01-25T12:42:19;7.20;1.00
21403;DHT22;10862;51.886;17.078;2024-01-25T12:44:45;7.30;99.90
21403;DHT22;10862;51.886;17.078;2024-01-25T12:47:11;7.30;99.90
21403;DHT22;10862;51.886;17.078;2024-01-25T12:49:42;7.20;99.90
21403;DHT22;10862;51.886;17.078;2024-01-25T12:52:13;7.20;1.00
21403;DHT22;10862;51.886;17.078;2024-01-25T12:54:40;7.20;99.90
21403;DHT22;10862;51.886;17.078;2024-01-25T12:57:06;7.20;99.90
21403;DHT22;10862;51.886;17.078;2024-01-25T12:59:36;7.20;99.90
21403;DHT22;10862;51.886;17.078;2024-01-25T13:02:02;7.20;99.90
21403;DHT22;10862;51.886;17.078;2024-01-25T13:04:28;7.30;1.00
21403;DHT22;10862;51.886;17.078;2024-01-25T13:06:55;7.10;99.90
21403;DHT22;10862;51.886;17.078;2024-01-25T13:09:24;7.30;99.90
21403;DHT22;10862;51.886;17.078;2024-01-25T13:11:49;7.30;99.90
21403;DHT22;10862;51.886;17.078;2024-01-25T13:14:16;7.30;99.90
21403;DHT22;10862;51.886;17.078;2024-01-25T13:16:42;7.30;99.90
21403;DHT22;10862;51.886;17.078;2024-01-25T13:19:08;7.30;68.70
21403;DHT22;10862;51.886;17.078;2024-01-25T13:21:34;7.30;1.00
21403;DHT22;10862;51.886;17.078;2024-01-25T13:24:00;7.30;1.00
21403;DHT22;10862;51.886;17.078;2024-01-25T13:26:26;7.30;1.00
21403;DHT22;10862;51.886;17.078;2024-01-25T13:28:52;7.30;1.00
21403;DHT22;10862;51.886;17.078;2024-01-25T13:31:18;7.20;1.00
21403;DHT22;10862;51.886;17.078;2024-01-25T13:33:44;7.30;1.00
21403;DHT22;10862;51.886;17.078;2024-01-25T13:36:10;7.30;1.00
21403;DHT22;10862;51.886;17.078;2024-01-25T13:38:39;7.30;33.50
21403;DHT22;10862;51.886;17.078;2024-01-25T13:41:04;7.30;1.00
21403;DHT22;10862;51.886;17.078;2024-01-25T13:43:30;7.20;1.00
21403;DHT22;10862;51.886;17.078;2024-01-25T13:45:56;7.20;1.00
21403;DHT22;10862;51.886;17.078;2024-01-25T13:48:21;7.20;1.00
21403;DHT22;10862;51.886;17.078;2024-01-25T13:50:47;7.10;1.00
21403;DHT22;10862;51.886;17.078;2024-01-25T13:53:12;7.20;99.90
21403;DHT22;10862;51.886;17.078;2024-01-25T13:55:38;7.00;1.00
21403;DHT22;10862;51.886;17.078;2024-01-25T13:58:04;7.00;1.00
21403;DHT22;10862;51.886;17.078;2024-01-25T14:00:29;7.00;1.00
21403;DHT22;10862;51.886;17.078;2024-01-25T14:02:55;7.00;1.00
21403;DHT22;10862;51.886;17.078;2024-01-25T14:05:20;7.00;1.00
21403;DHT22;10862;51.886;17.078;2024-01-25T14:07:46;7.00;1.00
21403;DHT22;10862;51.886;17.078;2024-01-25T14:10:12;7.00;1.00
21403;DHT22;10862;51.886;17.078;2024-01-25T14:12:38;6.90;1.00
21403;DHT22;10862;51.886;17.078;2024-01-25T14:15:04;7.00;1.00
21403;DHT22;10862;51.886;17.078;2024-01-25T14:17:30;6.90;1.00
21403;DHT22;10862;51.886;17.078;2024-01-25T14:19:55;6.90;1.00
21403;DHT22;10862;51.886;17.078;2024-01-25T14:22:21;6.90;1.00
21403;DHT22;10862;51.886;17.078;2024-01-25T14:24:47;6.90;1.00
21403;DHT22;10862;51.886;17.078;2024-01-25T14:27:13;6.80;99.90
21403;DHT22;10862;51.886;17.078;2024-01-25T14:29:38;6.80;99.90
21403;DHT22;10862;51.886;17.078;2024-01-25T14:32:04;6.90;1.00
21403;DHT22;10862;51.886;17.078;2024-01-25T14:34:30;6.90;1.00
21403;DHT22;10862;51.886;17.078;2024-01-25T14:36:55;7.00;1.00
21403;DHT22;10862;51.886;17.078;2024-01-25T14:39:21;7.00;1.00
21403;DHT22;10862;51.886;17.078;2024-01-25T14:41:47;7.00;1.00
21403;DHT22;10862;51.886;17.078;2024-01-25T14:44:13;7.00;1.00
21403;DHT22;10862;51.886;17.078;2024-01-25T14:46:38;7.00;1.00
21403;DHT22;10862;51.886;17.078;2024-01-25T14:49:04;7.00;99.90
21403;DHT22;10862;51.886;17.078;2024-01-25T14:51:30;7.00;61.00
21403;DHT22;10862;51.886;17.078;2024-01-25T14:53:56;7.10;99.90
21403;DHT22;10862;51.886;17.078;2024-01-25T14:56:21;7.00;1.00
21403;DHT22;10862;51.886;17.078;2024-01-25T14:58:47;7.00;99.90
21403;DHT22;10862;51.886;17.078;2024-01-25T15:01:16;7.00;1.00
21403;DHT22;10862;51.886;17.078;2024-01-25T15:03:47;6.90;99.90
21403;DHT22;10862;51.886;17.078;2024-01-25T15:06:13;7.00;99.90
21403;DHT22;10862;51.886;17.078;2024-01-25T15:08:39;7.00;99.90
21403;DHT22;10862;51.886;17.078;2024-01-25T15:11:06;7.10;99.90
21403;DHT22;10862;51.886;17.078;2024-01-25T15:13:32;7.00;99.90
21403;DHT22;10862;51.886;17.078;2024-01-25T15:15:58;6.90;99.90
21403;DHT22;10862;51.886;17.078;2024-01-25T15:18:23;6.90;99.90
21403;DHT22;10862;51.886;17.078;2024-01-25T15:20:49;7.00;99.90
21403;DHT22;10862;51.886;17.078;2024-01-25T15:23:16;7.00;75.20
21403;DHT22;10862;51.886;17.078;2024-01-25T15:25:42;7.00;99.90
21403;DHT22;10862;51.886;17.078;2024-01-25T15:28:08;7.00;99.90
21403;DHT22;10862;51.886;17.078;2024-01-25T15:30:33;7.00;86.60
21403;DHT22;10862;51.886;17.078;2024-01-25T15:32:59;7.00;1.00
21403;DHT22;10862;51.886;17.078;2024-01-25T15:35:27;7.10;1.00
21403;DHT22;10862;51.886;17.078;2024-01-25T15:37:53;7.10;1.00